Latest Weather Observations for Melville Water

IDW60801

Issued at 2:32 am WST Monday 15 February 2016 (issued every 30 minutes, with the page automatically refreshed every 10 minutes)

About weather observations | Map of weather stations | Latest weather observations for WA | Other Formats
Station Details ID: 009091 Name: INNER DOLPHIN PYLON Lat: -31.99 Lon: 115.83 Height: 0.0 m
Data from the previous 72 hours. | See also: Recent months at Melville Water
Date/Time
WST
Temp
°C
App
Temp
°C
Dew
Point
Rel
Hum
%
Delta-T
°C
Wind Press
QNH
hPa
Press
MSL
hPa
Rain
since 9 am
mm
Dir
 
Spd
km/h
Gust
km/h
Spd
kts
Gust
kts
15/02:30am - - - - - ESE 33 44 18 24 - - -
15/02:00am - - - - - ESE 30 43 16 23 - - -
15/01:37am - - - - - ESE 28 48 15 26 - - -
15/01:30am - - - - - ESE 28 39 15 21 - - -
15/01:00am - - - - - SE 32 39 17 21 - - -
15/12:30am - - - - - SE 30 39 16 21 - - -
15/12:00am - - - - - SE 33 44 18 24 - - -
 
Date/Time
WST
Temp
°C
App
Temp
°C
Dew
Point
Rel
Hum
%
Delta-T
°C
Wind Press
QNH
hPa
Press
MSL
hPa
Rain
since 9 am
mm
Dir
 
Spd
km/h
Gust
km/h
Spd
kts
Gust
kts
14/11:30pm - - - - - SE 28 41 15 22 - - -
14/11:00pm - - - - - SE 26 33 14 18 - - -
14/10:30pm - - - - - SE 24 30 13 16 - - -
14/10:00pm - - - - - SE 22 28 12 15 - - -
14/09:30pm - - - - - SE 22 30 12 16 - - -
14/09:00pm - - - - - SE 19 22 10 12 - - -
14/08:30pm - - - - - SE 19 22 10 12 - - -
14/08:00pm - - - - - SE 22 28 12 15 - - -
14/07:30pm - - - - - SE 22 28 12 15 - - -
14/07:00pm - - - - - SE 24 33 13 18 - - -
14/06:30pm - - - - - SE 30 39 16 21 - - -
14/06:00pm - - - - - SW 22 33 12 18 - - -
14/05:30pm - - - - - SW 24 33 13 18 - - -
14/05:00pm - - - - - SW 22 30 12 16 - - -
14/04:30pm - - - - - SW 24 28 13 15 - - -
14/04:00pm - - - - - SE 15 24 8 13 - - -
14/03:30pm - - - - - SSE 11 26 6 14 - - -
14/03:00pm - - - - - SE 15 24 8 13 - - -
14/02:30pm - - - - - ESE 17 30 9 16 - - -
14/02:00pm - - - - - SSE 17 28 9 15 - - -
14/01:30pm - - - - - SE 20 32 11 17 - - -
14/01:00pm - - - - - SE 20 33 11 18 - - -
14/12:30pm - - - - - SSE 20 32 11 17 - - -
14/12:00pm - - - - - SSE 19 30 10 16 - - -
14/11:30am - - - - - SSE 22 32 12 17 - - -
14/11:00am - - - - - ESE 19 26 10 14 - - -
14/10:30am - - - - - ESE 22 28 12 15 - - -
14/10:00am - - - - - ESE 22 33 12 18 - - -
14/09:30am - - - - - ESE 22 32 12 17 - - -
14/09:00am - - - - - ESE 28 33 15 18 - - -
14/08:30am - - - - - ESE 30 39 16 21 - - -
14/08:00am - - - - - ESE 30 41 16 22 - - -
14/07:30am - - - - - ESE 28 39 15 21 - - -
14/07:00am - - - - - ESE 30 39 16 21 - - -
14/06:30am - - - - - ESE 28 37 15 20 - - -
14/06:00am - - - - - ESE 32 50 17 27 - - -
14/05:30am - - - - - ESE 26 35 14 19 - - -
14/05:00am - - - - - ESE 28 39 15 21 - - -
14/04:30am - - - - - ESE 30 39 16 21 - - -
14/04:00am - - - - - ESE 32 39 17 21 - - -
14/03:30am - - - - - ESE 33 44 18 24 - - -
14/03:00am - - - - - ESE 32 41 17 22 - - -
14/02:45am - - - - - ESE 32 52 17 28 - - -
14/02:30am - - - - - ESE 32 39 17 21 - - -
14/02:00am - - - - - ESE 32 43 17 23 - - -
14/01:30am - - - - - SE 33 43 18 23 - - -
14/01:00am - - - - - SE 28 39 15 21 - - -
14/12:30am - - - - - SE 41 52 22 28 - - -
14/12:14am - - - - - SE 37 57 20 31 - - -
14/12:00am - - - - - ESE 32 46 17 25 - - -
 
Date/Time
WST
Temp
°C
App
Temp
°C
Dew
Point
Rel
Hum
%
Delta-T
°C
Wind Press
QNH
hPa
Press
MSL
hPa
Rain
since 9 am
mm
Dir
 
Spd
km/h
Gust
km/h
Spd
kts
Gust
kts
13/11:30pm - - - - - SE 28 39 15 21 - - -
13/11:00pm - - - - - SSE 20 26 11 14 - - -
13/10:30pm - - - - - SE 22 28 12 15 - - -
13/10:00pm - - - - - SE 22 30 12 16 - - -
13/09:30pm - - - - - SSE 22 28 12 15 - - -
13/09:00pm - - - - - SSE 19 24 10 13 - - -
13/08:30pm - - - - - S 19 20 10 11 - - -
13/08:00pm - - - - - SSW 19 20 10 11 - - -
13/07:30pm - - - - - SSW 22 28 12 15 - - -
13/07:00pm - - - - - SSW 26 35 14 19 - - -
13/06:30pm - - - - - SSW 35 43 19 23 - - -
13/06:00pm - - - - - SSW 37 46 20 25 - - -
13/05:30pm - - - - - SSW 39 46 21 25 - - -
13/05:00pm - - - - - SW 41 50 22 27 - - -
13/04:30pm - - - - - SW 41 50 22 27 - - -
13/04:00pm - - - - - SW 39 46 21 25 - - -
13/03:30pm - - - - - SW 37 44 20 24 - - -
13/03:00pm - - - - - SW 35 43 19 23 - - -
13/02:40pm - - - - - SW 22 46 12 25 - - -
13/02:36pm - - - - - SSW 15 46 8 25 - - -
13/02:30pm - - - - - S 11 28 6 15 - - -
13/02:00pm - - - - - SSE 13 20 7 11 - - -
13/01:30pm - - - - - SSW 9 22 5 12 - - -
13/01:00pm - - - - - SE 13 20 7 11 - - -
13/12:30pm - - - - - SE 17 26 9 14 - - -
13/12:00pm - - - - - SE 17 26 9 14 - - -
13/11:30am - - - - - SSE 17 26 9 14 - - -
13/11:00am - - - - - SSE 17 33 9 18 - - -
13/10:30am - - - - - SSE 20 32 11 17 - - -
13/10:00am - - - - - SSE 20 30 11 16 - - -
13/09:30am - - - - - SE 24 32 13 17 - - -
13/09:00am - - - - - ESE 22 28 12 15 - - -
13/08:30am - - - - - SE 28 39 15 21 - - -
13/08:00am - - - - - SSE 22 32 12 17 - - -
13/07:30am - - - - - SE 24 32 13 17 - - -
13/07:00am - - - - - SSE 26 32 14 17 - - -
13/06:30am - - - - - SSE 20 28 11 15 - - -
13/06:00am - - - - - S 15 19 8 10 - - -
13/05:30am - - - - - S 13 19 7 10 - - -
13/05:00am - - - - - SSE 15 22 8 12 - - -
13/04:30am - - - - - S 20 26 11 14 - - -
13/04:00am - - - - - S 20 26 11 14 - - -
13/03:30am - - - - - S 22 28 12 15 - - -
13/03:00am - - - - - S 22 28 12 15 - - -
13/02:30am - - - - - SSW 22 26 12 14 - - -
13/02:00am - - - - - S 24 30 13 16 - - -
13/01:30am - - - - - S 20 28 11 15 - - -
13/01:00am - - - - - S 20 26 11 14 - - -
13/12:30am - - - - - S 17 24 9 13 - - -
13/12:00am - - - - - S 20 28 11 15 - - -
 
Date/Time
WST
Temp
°C
App
Temp
°C
Dew
Point
Rel
Hum
%
Delta-T
°C
Wind Press
QNH
hPa
Press
MSL
hPa
Rain
since 9 am
mm
Dir
 
Spd
km/h
Gust
km/h
Spd
kts
Gust
kts
12/11:30pm - - - - - S 19 26 10 14 - - -
12/11:00pm - - - - - SSW 22 30 12 16 - - -
12/10:30pm - - - - - SSW 26 32 14 17 - - -
12/10:00pm - - - - - SSW 28 33 15 18 - - -
12/09:30pm - - - - - SSW 22 28 12 15 - - -
12/09:00pm - - - - - SSW 24 32 13 17 - - -
12/08:30pm - - - - - SSW 30 37 16 20 - - -
12/08:00pm - - - - - SSW 30 37 16 20 - - -
12/07:30pm - - - - - SSW 37 46 20 25 - - -
12/07:00pm - - - - - SW 39 46 21 25 - - -
12/06:30pm - - - - - SSW 33 44 18 24 - - -
12/06:00pm - - - - - SSW 37 48 20 26 - - -
12/05:30pm - - - - - SSW 37 46 20 25 - - -
12/05:00pm - - - - - SW 39 48 21 26 - - -
12/04:30pm - - - - - SW 39 46 21 25 - - -
12/04:00pm - - - - - SW 33 41 18 22 - - -
12/03:30pm - - - - - SW 33 39 18 21 - - -
12/03:00pm - - - - - SW 32 39 17 21 - - -
12/02:30pm - - - - - SW 30 39 16 21 - - -
12/02:00pm - - - - - SW 32 39 17 21 - - -
12/01:30pm - - - - - SW 35 41 19 22 - - -
12/01:00pm - - - - - SW 35 41 19 22 - - -
12/12:30pm - - - - - SW 35 43 19 23 - - -
12/12:00pm - - - - - SW 30 39 16 21 - - -
12/11:30am - - - - - SW 24 30 13 16 - - -
12/11:00am - - - - - SW 24 30 13 16 - - -
12/10:30am - - - - - SW 22 28 12 15 - - -
12/10:00am - - - - - WSW 20 24 11 13 - - -
12/09:30am - - - - - WSW 4 9 2 5 - - -
12/09:00am - - - - - SW 7 11 4 6 - - -
12/08:30am - - - - - SW 6 9 3 5 - - -
12/08:00am - - - - - S 6 9 3 5 - - -
12/07:30am - - - - - SSW 11 15 6 8 - - -
12/07:00am - - - - - SSW 15 22 8 12 - - -
12/06:30am - - - - - S 13 19 7 10 - - -
12/06:00am - - - - - SSW 11 17 6 9 - - -
12/05:30am - - - - - S 15 20 8 11 - - -
12/05:00am - - - - - SSE 13 19 7 10 - - -
12/04:30am - - - - - S 13 19 7 10 - - -
12/04:00am - - - - - S 11 17 6 9 - - -
12/03:30am - - - - - S 13 20 7 11 - - -
12/03:00am - - - - - S 13 19 7 10 - - -

Other Formats:

Comma delimited format used in spreadsheet applications
http://www.bom.gov.au/fwo/IDW60801/IDW60801.95620.axf

JavaScript Object Notation format (JSON) in row-major order
http://www.bom.gov.au/fwo/IDW60801/IDW60801.95620.json